Garwood, Missouri
Current Conditions -  °F | °C
As of 9:53 AM on Saturday 22 Nov 2014 (Local Time) from KPOF Reporting Station
Overcast Overcast  
Wind Chill: 55°   Ceiling: 6000
Heat Index: 55°   Visibility: 10mi
Dew Point: 47°   Wind: 10mph
Humidity: 74%   Direction: 180°S
Pressure: 30.19"   Gusts: NA
Location:  36.9608°N, 90.9923°W
Report Text: KPOF 221553Z AUTO 18009KT 10SM OVC060 13/08 A3019 RMK AO2 RAB04E26 SLP225 P0001 T01280083
Loading
Personal Weather Stations






























Interactive Weather Map New forecast layout! Learn more

10-Day Weather Forecast

Advertisements
Track Severe Weather on mobile